Time;durP1;ratioP1;P1;durP2;ratioP2;P2;SDS_P1;SDS_P2;PMS_P1;PMS_P2;Temp;Humidity;BMP_temperature;BMP_pressure;BME280_temperature;BME280_humidity;BME280_pressure;Samples;Min_cycle;Max_cycle;Signal;HPM_P1;HPM_P2
2022/09/26 00:01:39;;;;;;;4.40;1.63;;;14.70;99.90;;;;;;4996064;28;20467;-71
2022/09/26 00:04:18;;;;;;;4.43;2.53;;;14.70;99.90;;;;;;4995991;28;20046;-68
2022/09/26 00:06:46;;;;;;;5.65;2.30;;;14.70;99.90;;;;;;4995808;28;20037;-68
2022/09/26 00:09:15;;;;;;;4.75;1.90;;;14.80;99.90;;;;;;4995987;28;20494;-69
2022/09/26 00:11:43;;;;;;;6.60;2.03;;;14.80;99.90;;;;;;4991433;28;20034;-78
2022/09/26 00:14:17;;;;;;;5.05;2.40;;;14.90;99.90;;;;;;4986394;28;20034;-72
2022/09/26 00:16:46;;;;;;;3.75;2.00;;;14.90;99.90;;;;;;4986227;28;20022;-72
2022/09/26 00:19:13;;;;;;;4.13;1.95;;;14.90;99.90;;;;;;4978658;28;20049;-71
2022/09/26 00:21:41;;;;;;;5.25;1.63;;;15.00;99.90;;;;;;4979444;28;20081;-73
2022/09/26 00:24:09;;;;;;;4.38;2.10;;;15.00;99.90;;;;;;4979309;28;20080;-72
2022/09/26 00:26:40;;;;;;;2.80;1.63;;;15.00;99.90;;;;;;4994627;28;20026;-72
2022/09/26 00:29:11;;;;;;;12.10;2.28;;;15.10;99.90;;;;;;4995323;28;20022;-76
2022/09/26 00:31:44;;;;;;;5.47;2.58;;;15.20;99.90;;;;;;4995594;28;20034;-72
2022/09/26 00:34:14;;;;;;;6.45;1.77;;;15.10;99.90;;;;;;4992353;28;20537;-69
2022/09/26 00:36:41;;;;;;;6.75;2.78;;;15.20;99.90;;;;;;4994213;28;20022;-70
2022/09/26 00:39:12;;;;;;;5.35;2.42;;;15.20;99.90;;;;;;4995142;28;20030;-69
2022/09/26 00:41:40;;;;;;;6.07;1.73;;;15.30;99.90;;;;;;4994685;28;20537;-69
2022/09/26 00:44:35;;;;;;;5.82;2.45;;;15.40;99.90;;;;;;4994310;28;20041;-71
2022/09/26 00:47:04;;;;;;;7.13;2.25;;;15.40;99.90;;;;;;4984465;28;20472;-72
2022/09/26 00:49:37;;;;;;;8.30;3.55;;;15.40;99.90;;;;;;4983306;28;20031;-73
2022/09/26 00:52:19;;;;;;;9.57;2.72;;;15.50;99.90;;;;;;4982616;28;20487;-72
2022/09/26 00:54:49;;;;;;;10.05;2.20;;;15.50;99.90;;;;;;4985469;28;20026;-72
2022/09/26 00:57:21;;;;;;;7.88;1.83;;;15.50;99.90;;;;;;4992637;28;20037;-72
2022/09/26 00:59:53;;;;;;;4.03;2.28;;;15.50;99.90;;;;;;4992922;28;20084;-69
2022/09/26 01:02:24;;;;;;;3.92;1.92;;;15.60;99.90;;;;;;4993774;28;20026;-71
2022/09/26 01:04:52;;;;;;;6.32;1.60;;;15.50;99.90;;;;;;4994536;28;20031;-71
2022/09/26 01:07:26;;;;;;;4.70;1.77;;;15.60;99.90;;;;;;4993846;28;20030;-70
2022/09/26 01:09:55;;;;;;;9.98;2.38;;;15.60;99.90;;;;;;4994457;28;20098;-72
2022/09/26 01:12:23;;;;;;;4.05;1.70;;;15.50;99.90;;;;;;4994577;28;20118;-72
2022/09/26 01:14:53;;;;;;;3.47;2.00;;;15.50;99.90;;;;;;4994306;28;20105;-72
2022/09/26 01:17:23;;;;;;;4.00;1.50;;;15.50;99.90;;;;;;4994172;28;20109;-73
2022/09/26 01:20:21;;;;;;;5.25;2.08;;;15.60;99.90;;;;;;4994279;28;20117;-72
2022/09/26 01:23:05;;;;;;;6.80;2.55;;;15.60;99.90;;;;;;4994115;28;20026;-72
2022/09/26 01:25:44;;;;;;;6.60;1.65;;;15.60;99.90;;;;;;4993737;28;20026;-72
2022/09/26 01:28:42;;;;;;;9.35;1.95;;;15.60;99.90;;;;;;4994532;28;20050;-72
2022/09/26 01:34:55;;;;;;;6.05;2.30;;;15.80;99.90;;;;;;4988175;28;20053;-72
2022/09/26 01:37:37;;;;;;;4.07;1.92;;;15.90;99.90;;;;;;4984717;28;20031;-72
2022/09/26 01:40:24;;;;;;;5.68;1.73;;;15.90;99.90;;;;;;4984515;28;20023;-70
2022/09/26 01:43:14;;;;;;;3.97;2.00;;;16.00;99.90;;;;;;4987488;28;20090;-71
2022/09/26 01:45:45;;;;;;;4.65;2.00;;;16.10;99.90;;;;;;4990820;28;20030;-70
2022/09/26 01:48:17;;;;;;;5.10;1.98;;;16.20;99.90;;;;;;4990207;28;20034;-71
2022/09/26 01:51:03;;;;;;;6.78;1.88;;;16.30;99.90;;;;;;4991160;28;20087;-72
2022/09/26 01:54:02;;;;;;;3.30;1.95;;;16.40;99.90;;;;;;4984695;28;20030;-72
2022/09/26 01:56:35;;;;;;;5.25;1.75;;;16.60;99.90;;;;;;4983275;28;20121;-72
2022/09/26 01:59:34;;;;;;;5.68;1.73;;;16.70;99.90;;;;;;4983546;28;20074;-73
2022/09/26 02:02:20;;;;;;;6.00;2.05;;;17.00;99.90;;;;;;4985982;28;20014;-72
2022/09/26 02:04:53;;;;;;;8.23;2.13;;;17.10;99.90;;;;;;4993909;28;20065;-73
2022/09/26 02:07:26;;;;;;;5.65;2.05;;;17.10;99.90;;;;;;4993940;28;20539;-72
2022/09/26 02:10:01;;;;;;;4.63;2.40;;;17.30;99.90;;;;;;4993915;28;20033;-72
2022/09/26 02:12:38;;;;;;;7.00;1.63;;;17.20;99.90;;;;;;4993853;28;20391;-71
2022/09/26 02:15:13;;;;;;;4.95;1.73;;;17.10;99.90;;;;;;4994113;28;20464;-73
2022/09/26 02:17:48;;;;;;;7.57;1.98;;;17.10;99.90;;;;;;4993764;28;20088;-72
2022/09/26 02:20:28;;;;;;;7.90;2.22;;;17.00;99.90;;;;;;4993923;28;20034;-72
2022/09/26 02:22:58;;;;;;;5.50;1.88;;;16.80;99.90;;;;;;4994568;28;20027;-73
2022/09/26 02:25:27;;;;;;;3.33;1.67;;;16.60;99.90;;;;;;4993735;28;20027;-72
2022/09/26 02:27:55;;;;;;;7.85;1.70;;;16.50;99.90;;;;;;4993832;28;20375;-72
2022/09/26 02:30:23;;;;;;;6.03;1.98;;;16.50;99.90;;;;;;4993390;28;20057;-72
2022/09/26 02:32:51;;;;;;;4.45;1.65;;;16.50;99.90;;;;;;4994006;28;20018;-73
2022/09/26 02:38:05;;;;;;;6.70;2.10;;;16.50;99.90;;;;;;4994070;28;20100;-72
2022/09/26 02:40:47;;;;;;;4.90;1.52;;;16.50;99.90;;;;;;4993676;28;20027;-73
2022/09/26 02:43:33;;;;;;;6.75;2.47;;;16.40;99.90;;;;;;4995503;28;20034;-72
2022/09/26 02:46:39;;;;;;;8.98;2.47;;;16.40;99.90;;;;;;4997396;28;20022;-72
2022/09/26 02:49:32;;;;;;;4.32;1.67;;;16.40;99.90;;;;;;4997414;28;20109;-72
2022/09/26 02:52:18;;;;;;;8.07;2.13;;;16.40;99.90;;;;;;4988522;28;20353;-73
2022/09/26 02:55:02;;;;;;;6.55;1.85;;;16.30;99.90;;;;;;4987986;28;20053;-72
2022/09/26 02:57:52;;;;;;;2.85;1.42;;;16.30;99.90;;;;;;4987934;28;20070;-72
2022/09/26 03:00:29;;;;;;;5.03;1.67;;;16.30;99.90;;;;;;4987131;28;20117;-71
2022/09/26 03:03:26;;;;;;;3.97;1.75;;;16.30;99.90;;;;;;4986882;28;20084;-72
2022/09/26 03:05:58;;;;;;;4.00;1.67;;;16.30;99.90;;;;;;4977966;28;20038;-70
2022/09/26 03:08:32;;;;;;;8.63;2.75;;;16.30;99.90;;;;;;4977545;28;20073;-73
2022/09/26 03:11:04;;;;;;;6.25;2.03;;;16.30;99.90;;;;;;4977420;28;20112;-72
2022/09/26 03:13:40;;;;;;;4.27;2.03;;;16.40;99.90;;;;;;4977587;28;20133;-80
2022/09/26 03:16:09;;;;;;;6.22;2.25;;;16.70;99.90;;;;;;4977353;28;20034;-73
2022/09/26 03:18:52;;;;;;;4.53;1.60;;;16.90;99.90;;;;;;4977049;28;20034;-71
2022/09/26 03:21:20;;;;;;;5.32;2.20;;;17.10;99.90;;;;;;4977980;28;20138;-71
2022/09/26 03:23:49;;;;;;;4.32;1.95;;;17.10;99.90;;;;;;4976916;28;20506;-71
2022/09/26 03:26:23;;;;;;;3.53;1.60;;;17.20;99.90;;;;;;4977237;28;20034;-72
2022/09/26 03:28:52;;;;;;;5.55;2.45;;;17.20;99.90;;;;;;4976177;28;20050;-71
2022/09/26 03:31:21;;;;;;;3.28;1.30;;;17.40;99.90;;;;;;4976858;28;20137;-71
2022/09/26 03:33:49;;;;;;;5.93;1.92;;;17.40;99.90;;;;;;4977161;28;20033;-70
2022/09/26 03:36:17;;;;;;;2.92;0.90;;;17.50;99.90;;;;;;4976684;28;20034;-68
2022/09/26 03:38:44;;;;;;;6.00;1.58;;;17.50;99.90;;;;;;4977165;28;20097;-70
2022/09/26 03:41:12;;;;;;;4.18;1.23;;;17.50;99.90;;;;;;4976647;28;20476;-71
2022/09/26 03:43:43;;;;;;;6.00;1.42;;;17.40;99.90;;;;;;4981955;28;20036;-70
2022/09/26 03:46:12;;;;;;;9.23;1.75;;;17.30;99.90;;;;;;4987010;28;20023;-72
2022/09/26 03:48:40;;;;;;;11.57;1.75;;;17.30;99.90;;;;;;4985679;28;20476;-70
2022/09/26 03:51:10;;;;;;;4.82;1.58;;;17.20;99.90;;;;;;4985042;28;20122;-70
2022/09/26 03:53:41;;;;;;;6.05;2.35;;;17.30;99.90;;;;;;4986189;28;20064;-72
2022/09/26 03:56:15;;;;;;;4.20;1.77;;;17.30;99.90;;;;;;4986868;28;20022;-72
2022/09/26 03:58:43;;;;;;;5.57;2.00;;;17.60;99.90;;;;;;4984496;28;20483;-71
2022/09/26 04:01:12;;;;;;;4.00;1.75;;;17.60;99.90;;;;;;4984410;28;20025;-72
2022/09/26 04:03:42;;;;;;;9.75;2.10;;;17.60;99.90;;;;;;4985937;28;20434;-70
2022/09/26 04:06:11;;;;;;;1.80;1.15;;;17.70;99.90;;;;;;4985394;28;20073;-71
2022/09/26 04:08:40;;;;;;;5.20;2.28;;;17.70;99.90;;;;;;4985154;28;20023;-71
2022/09/26 04:11:11;;;;;;;4.22;1.50;;;17.60;99.90;;;;;;4984607;28;20168;-70
2022/09/26 04:13:39;;;;;;;3.30;1.67;;;17.50;99.90;;;;;;4985765;28;20379;-71
2022/09/26 04:16:08;;;;;;;4.65;1.95;;;17.50;99.90;;;;;;4986181;28;20192;-70
2022/09/26 04:18:37;;;;;;;6.95;1.60;;;17.50;99.90;;;;;;4984575;28;20042;-69
2022/09/26 04:21:08;;;;;;;4.07;2.25;;;17.50;99.90;;;;;;4985059;28;20034;-71
2022/09/26 04:23:38;;;;;;;4.93;1.80;;;17.50;99.90;;;;;;4986210;28;20030;-68
2022/09/26 04:26:12;;;;;;;5.40;1.60;;;17.40;99.90;;;;;;4985862;28;20022;-69
2022/09/26 04:28:41;;;;;;;5.57;2.10;;;17.40;99.90;;;;;;4985016;28;20139;-70
2022/09/26 04:31:11;;;;;;;8.07;3.50;;;17.60;99.90;;;;;;4986690;28;20249;-71
2022/09/26 04:33:39;;;;;;;4.85;2.58;;;17.80;99.90;;;;;;4995347;28;20034;-70
2022/09/26 04:36:11;;;;;;;4.68;1.90;;;18.00;99.90;;;;;;4995287;28;20030;-69
2022/09/26 04:38:39;;;;;;;5.45;1.42;;;18.00;99.90;;;;;;4995326;28;20040;-71
2022/09/26 04:41:19;;;;;;;3.88;1.90;;;17.80;99.90;;;;;;4995350;28;20381;-72
2022/09/26 04:43:47;;;;;;;5.78;1.60;;;17.60;99.90;;;;;;4995479;28;20037;-72
2022/09/26 04:46:20;;;;;;;5.18;2.03;;;17.60;99.90;;;;;;4995096;28;20093;-71
2022/09/26 04:48:49;;;;;;;3.35;1.48;;;17.60;99.90;;;;;;4995193;28;20057;-70
2022/09/26 04:51:19;;;;;;;5.18;1.75;;;17.60;99.90;;;;;;4995044;28;20471;-70
2022/09/26 04:53:46;;;;;;;4.28;1.88;;;17.60;99.90;;;;;;4995125;28;20031;-72
2022/09/26 04:56:16;;;;;;;2.78;1.52;;;17.60;99.90;;;;;;4995096;28;20479;-72
2022/09/26 04:58:45;;;;;;;3.13;1.50;;;17.60;99.90;;;;;;4995103;28;20395;-70
2022/09/26 05:01:15;;;;;;;5.25;1.70;;;17.70;99.90;;;;;;4994980;28;20026;-72
2022/09/26 05:03:44;;;;;;;4.10;1.48;;;17.70;99.90;;;;;;4994813;28;20073;-71
2022/09/26 05:06:13;;;;;;;3.35;1.73;;;18.00;99.90;;;;;;4994260;28;20018;-72
2022/09/26 05:08:45;;;;;;;8.00;1.98;;;18.10;99.90;;;;;;4994952;28;20023;-72
2022/09/26 05:11:14;;;;;;;5.72;1.50;;;18.10;99.90;;;;;;4994938;28;20057;-72
2022/09/26 05:13:42;;;;;;;5.13;1.38;;;18.30;99.90;;;;;;4994617;28;20471;-72
2022/09/26 05:16:13;;;;;;;3.58;1.40;;;18.30;99.90;;;;;;4985861;28;20023;-72
2022/09/26 05:18:41;;;;;;;4.53;1.20;;;18.10;99.90;;;;;;4983908;28;20030;-72
2022/09/26 05:21:11;;;;;;;2.88;1.33;;;17.90;99.90;;;;;;4985241;28;20045;-72
2022/09/26 05:26:46;;;;;;;3.33;1.27;;;17.70;99.90;;;;;;4985156;28;20094;-72
2022/09/26 05:29:16;;;;;;;6.38;1.50;;;17.60;99.90;;;;;;4982460;28;20484;-72
2022/09/26 05:31:44;;;;;;;3.03;1.35;;;17.60;99.90;;;;;;4983896;28;20074;-71
2022/09/26 05:34:14;;;;;;;6.43;1.40;;;17.50;99.90;;;;;;4982860;28;20029;-71
2022/09/26 05:36:42;;;;;;;5.25;1.30;;;17.50;99.90;;;;;;4984209;28;20030;-72
2022/09/26 05:40:55;;;;;;;3.35;1.27;;;17.40;99.90;;;;;;4984815;28;20101;-72
2022/09/26 05:41:58;;;;;;;2.97;1.10;;;17.40;99.90;;;;;;4982400;28;20031;-71
2022/09/26 05:44:27;;;;;;;5.47;1.35;;;17.30;99.90;;;;;;4974695;28;20102;-72
2022/09/26 05:46:56;;;;;;;8.65;2.08;;;17.30;99.90;;;;;;4974930;28;20034;-69
2022/09/26 05:49:26;;;;;;;2.78;1.30;;;17.20;99.90;;;;;;4974689;28;20035;-72
2022/09/26 05:51:54;;;;;;;4.55;1.90;;;17.00;99.90;;;;;;4974806;28;20111;-71
2022/09/26 05:54:22;;;;;;;6.28;1.42;;;16.90;99.90;;;;;;4972880;28;20023;-69
2022/09/26 05:56:50;;;;;;;3.28;1.48;;;17.00;99.90;;;;;;4972669;28;20425;-71
2022/09/26 05:59:22;;;;;;;3.70;1.63;;;16.90;99.90;;;;;;4971878;28;20499;-69
2022/09/26 06:01:50;;;;;;;3.55;1.50;;;16.80;99.90;;;;;;4971547;28;20031;-69
2022/09/26 06:04:18;;;;;;;1.90;1.10;;;16.80;99.90;;;;;;4971519;28;20042;-69
2022/09/26 06:06:47;;;;;;;5.20;1.60;;;16.70;99.90;;;;;;4972243;28;20081;-69
2022/09/26 06:09:15;;;;;;;3.63;1.52;;;16.60;99.90;;;;;;4973490;28;20105;-72
2022/09/26 06:11:43;;;;;;;9.27;1.73;;;16.60;99.90;;;;;;4973982;28;20022;-74
2022/09/26 06:14:10;;;;;;;4.25;1.23;;;16.60;99.90;;;;;;4974016;28;20093;-72
2022/09/26 06:16:38;;;;;;;2.53;1.45;;;16.50;99.90;;;;;;4979814;28;20023;-71
2022/09/26 06:19:06;;;;;;;6.25;1.45;;;16.50;99.90;;;;;;4986423;28;20035;-71
2022/09/26 06:21:34;;;;;;;3.63;1.58;;;16.50;99.90;;;;;;4987049;28;20533;-72
2022/09/26 06:24:02;;;;;;;4.03;1.50;;;16.40;99.90;;;;;;4988220;28;20026;-72
2022/09/26 06:26:29;;;;;;;3.08;1.63;;;16.40;99.90;;;;;;4986546;28;20101;-71
2022/09/26 06:28:59;;;;;;;3.58;1.58;;;16.30;99.90;;;;;;4987273;28;20486;-70
2022/09/26 06:31:28;;;;;;;5.93;1.70;;;16.30;99.90;;;;;;4987736;28;20507;-70
2022/09/26 06:33:57;;;;;;;2.78;1.30;;;16.20;99.90;;;;;;4987270;28;20031;-69
2022/09/26 06:36:25;;;;;;;6.90;2.22;;;16.20;99.90;;;;;;4986267;28;20114;-69
2022/09/26 06:38:54;;;;;;;4.97;1.70;;;16.20;99.90;;;;;;4987616;28;20149;-71
2022/09/26 06:41:24;;;;;;;3.65;1.58;;;16.20;99.90;;;;;;4988003;28;20353;-71
2022/09/26 06:43:52;;;;;;;7.93;1.63;;;16.10;99.90;;;;;;4983594;28;20022;-71
2022/09/26 06:46:20;;;;;;;5.75;1.45;;;16.20;99.90;;;;;;4983264;28;20475;-71
2022/09/26 06:48:51;;;;;;;5.20;1.65;;;16.10;99.90;;;;;;4983132;28;20391;-72
2022/09/26 06:51:19;;;;;;;2.97;1.17;;;16.00;99.90;;;;;;4983641;28;20059;-71
2022/09/26 06:53:47;;;;;;;10.68;2.20;;;16.00;99.90;;;;;;4982393;28;20102;-70
2022/09/26 06:56:15;;;;;;;2.83;1.83;;;15.90;99.90;;;;;;4985189;28;20027;-70
2022/09/26 06:58:42;;;;;;;3.83;1.42;;;15.90;99.90;;;;;;4985894;28;20033;-71
2022/09/26 07:01:11;;;;;;;4.90;1.55;;;16.00;99.90;;;;;;4987582;28;20097;-72
2022/09/26 07:03:38;;;;;;;3.50;1.50;;;15.90;99.90;;;;;;4994726;28;20030;-71
2022/09/26 07:06:07;;;;;;;2.90;1.52;;;15.80;99.90;;;;;;4994114;28;20014;-71
2022/09/26 07:08:36;;;;;;;3.08;1.40;;;15.80;99.90;;;;;;4995062;28;20352;-72
2022/09/26 07:11:04;;;;;;;2.08;1.42;;;15.80;99.90;;;;;;4994083;28;20061;-77
2022/09/26 07:13:34;;;;;;;6.75;2.00;;;15.80;99.90;;;;;;4990283;28;20073;-72
2022/09/26 07:16:01;;;;;;;5.18;2.17;;;15.70;99.90;;;;;;4985611;28;20479;-72
2022/09/26 07:18:29;;;;;;;6.50;1.63;;;15.70;99.90;;;;;;4987443;28;20038;-71
2022/09/26 07:20:57;;;;;;;2.58;1.40;;;15.60;99.90;;;;;;4985414;28;20430;-72
2022/09/26 07:23:25;;;;;;;2.25;1.40;;;15.60;99.90;;;;;;4985548;28;20030;-78
2022/09/26 07:25:55;;;;;;;3.53;1.80;;;15.60;99.90;;;;;;4987023;28;20417;-72
2022/09/26 07:28:23;;;;;;;4.13;1.73;;;15.60;99.90;;;;;;4986558;28;20031;-70
2022/09/26 07:30:55;;;;;;;4.47;1.95;;;15.60;99.90;;;;;;4984908;28;20038;-72
2022/09/26 07:33:23;;;;;;;5.50;1.70;;;15.60;99.90;;;;;;4988934;28;20034;-71
2022/09/26 07:35:51;;;;;;;4.43;1.67;;;15.50;99.90;;;;;;4985098;28;20019;-72
2022/09/26 07:38:19;;;;;;;7.35;1.83;;;15.50;99.90;;;;;;4984397;28;20368;-70
2022/09/26 07:40:50;;;;;;;3.58;1.50;;;15.40;99.90;;;;;;4986487;28;20014;-71
2022/09/26 07:43:17;;;;;;;5.72;1.73;;;15.50;99.90;;;;;;4986140;28;20045;-72
2022/09/26 07:51:18;;;;;;;4.70;1.90;;;15.40;99.90;;;;;;4985746;28;20511;-71
2022/09/26 07:53:46;;;;;;;6.93;1.75;;;15.40;99.90;;;;;;4984744;28;20642;-72
2022/09/26 07:56:15;;;;;;;3.53;1.65;;;15.30;99.90;;;;;;4986070;28;20438;-71
2022/09/26 07:58:45;;;;;;;4.30;1.80;;;15.30;99.90;;;;;;4986208;28;20439;-71
2022/09/26 08:01:14;;;;;;;4.97;1.98;;;15.30;99.90;;;;;;4985221;28;20450;-71
2022/09/26 08:03:46;;;;;;;9.57;2.22;;;15.30;99.90;;;;;;4983988;28;20038;-72
2022/09/26 08:06:19;;;;;;;5.95;1.80;;;15.20;99.90;;;;;;4985901;28;20057;-72
2022/09/26 08:08:48;;;;;;;4.13;1.67;;;15.20;99.90;;;;;;4986344;28;20379;-71
2022/09/26 08:11:18;;;;;;;7.07;2.38;;;15.20;99.90;;;;;;4984210;28;20029;-72
2022/09/26 08:13:46;;;;;;;5.25;2.60;;;15.20;99.90;;;;;;4984147;28;20101;-70
2022/09/26 08:16:22;;;;;;;5.15;1.98;;;15.10;99.90;;;;;;4985056;28;20069;-72
2022/09/26 08:18:50;;;;;;;3.22;1.88;;;15.20;99.90;;;;;;4987815;28;20035;-71
2022/09/26 08:21:19;;;;;;;5.43;2.17;;;15.10;99.90;;;;;;4985311;28;20503;-69
2022/09/26 08:23:47;;;;;;;4.53;1.75;;;15.10;99.90;;;;;;4983221;28;20035;-69
2022/09/26 08:26:15;;;;;;;5.22;1.83;;;15.10;99.90;;;;;;4984798;28;20034;-69
2022/09/26 08:28:42;;;;;;;4.65;2.25;;;15.10;99.90;;;;;;4984027;28;20026;-70
2022/09/26 08:31:10;;;;;;;3.15;1.65;;;15.00;99.90;;;;;;4981800;28;20077;-71
2022/09/26 08:33:39;;;;;;;6.57;2.13;;;15.00;99.90;;;;;;4976731;28;20019;-69
2022/09/26 08:36:09;;;;;;;2.70;1.75;;;14.90;99.90;;;;;;4975507;28;20019;-70
2022/09/26 08:38:37;;;;;;;9.43;2.40;;;14.90;99.90;;;;;;4977607;28;20026;-70
2022/09/26 08:41:10;;;;;;;1.85;1.45;;;14.90;99.90;;;;;;4976914;28;20081;-71
2022/09/26 08:44:02;;;;;;;4.82;1.50;;;14.90;99.90;;;;;;4981524;28;20029;-71
2022/09/26 08:47:01;;;;;;;5.97;1.83;;;14.90;99.90;;;;;;4978110;28;20472;-71
2022/09/26 08:49:38;;;;;;;5.25;1.90;;;14.80;99.90;;;;;;4977517;28;20039;-69
2022/09/26 08:52:19;;;;;;;3.53;1.90;;;14.80;99.90;;;;;;4979075;28;20394;-69
2022/09/26 08:54:48;;;;;;;3.70;1.90;;;14.80;99.90;;;;;;4980904;28;20109;-70
2022/09/26 08:57:34;;;;;;;5.88;2.28;;;14.70;99.90;;;;;;4979523;28;20026;-69
2022/09/26 09:00:21;;;;;;;;;;;14.70;99.90;;;;;;4978175;28;20031;-71
2022/09/26 09:03:02;;;;;;;3.90;2.30;;;14.70;99.90;;;;;;4977107;28;19906;-71
2022/09/26 09:05:44;;;;;;;6.70;2.30;;;14.60;99.90;;;;;;4976885;28;20023;-72
2022/09/26 09:08:24;;;;;;;4.18;1.83;;;14.60;99.90;;;;;;4989502;28;20101;-74
2022/09/26 09:10:55;;;;;;;3.90;1.95;;;14.60;99.90;;;;;;4989874;28;20542;-70
2022/09/26 09:13:32;;;;;;;4.95;1.52;;;14.60;99.90;;;;;;4991830;28;20471;-70
2022/09/26 09:16:24;;;;;;;2.28;1.50;;;14.50;99.90;;;;;;4992650;28;20018;-70
2022/09/26 09:19:09;;;;;;;2.60;1.48;;;14.50;99.90;;;;;;4993665;28;20039;-68
2022/09/26 09:21:58;;;;;;;4.47;1.83;;;14.40;99.90;;;;;;4993621;28;20506;-68
2022/09/26 09:24:38;;;;;;;3.65;1.80;;;14.50;99.90;;;;;;4993640;28;20041;-69
2022/09/26 09:27:37;;;;;;;2.95;1.75;;;14.40;99.90;;;;;;4992036;28;20022;-68
2022/09/26 09:30:24;;;;;;;5.75;1.90;;;14.40;99.90;;;;;;4989939;28;20124;-68
2022/09/26 09:32:52;;;;;;;5.45;2.22;;;14.40;99.90;;;;;;4990647;28;20076;-68
2022/09/26 09:35:45;;;;;;;4.07;1.80;;;14.40;99.90;;;;;;4990740;28;20022;-68
2022/09/26 09:38:22;;;;;;;5.70;2.00;;;14.40;99.90;;;;;;4990414;28;20089;-68
2022/09/26 09:41:05;;;;;;;4.10;2.00;;;14.50;99.90;;;;;;4991334;28;20076;-71
2022/09/26 09:43:46;;;;;;;3.83;1.75;;;14.40;99.90;;;;;;4994137;28;20430;-70
2022/09/26 09:46:37;;;;;;;3.45;2.08;;;14.40;99.90;;;;;;4994308;28;20483;-70
2022/09/26 09:49:20;;;;;;;5.50;2.05;;;14.50;99.90;;;;;;4994194;28;20035;-67
2022/09/26 09:51:57;;;;;;;2.92;1.35;;;14.50;99.90;;;;;;4994060;28;20030;-69
2022/09/26 09:54:44;;;;;;;3.47;1.65;;;14.50;99.90;;;;;;4994291;28;20091;-70
2022/09/26 09:57:25;;;;;;;9.25;2.13;;;14.50;99.90;;;;;;4994031;28;20487;-70
2022/09/26 10:00:15;;;;;;;3.17;1.80;;;14.40;99.90;;;;;;4994234;28;20034;-71
2022/09/26 10:02:58;;;;;;;4.65;2.20;;;14.50;99.90;;;;;;4994025;28;20026;-71
2022/09/26 10:05:35;;;;;;;5.45;2.28;;;14.50;99.90;;;;;;4994662;28;20387;-71
2022/09/26 10:08:10;;;;;;;5.82;2.65;;;14.50;99.90;;;;;;4994113;28;20022;-76
2022/09/26 10:10:45;;;;;;;3.10;1.73;;;14.50;99.90;;;;;;4993680;28;20084;-70
2022/09/26 10:13:14;;;;;;;6.60;2.03;;;14.50;99.90;;;;;;4994026;28;20014;-71
2022/09/26 10:15:49;;;;;;;8.13;1.73;;;14.50;99.90;;;;;;4993660;28;20058;-70
2022/09/26 10:18:20;;;;;;;4.50;1.98;;;14.40;99.90;;;;;;4992789;28;20030;-69
2022/09/26 10:20:53;;;;;;;2.72;1.75;;;14.40;99.90;;;;;;4991289;28;20101;-69
2022/09/26 10:23:30;;;;;;;3.67;2.05;;;14.40;99.90;;;;;;4993363;28;20022;-70
2022/09/26 10:26:02;;;;;;;3.58;1.92;;;14.40;99.90;;;;;;4992618;28;20035;-69
2022/09/26 10:28:34;;;;;;;4.38;1.75;;;14.40;99.90;;;;;;4991529;28;20129;-70
2022/09/26 10:31:09;;;;;;;3.38;1.45;;;14.40;99.90;;;;;;4990068;28;20074;-70
2022/09/26 10:33:43;;;;;;;4.95;1.75;;;14.40;99.90;;;;;;4983499;28;20022;-69
2022/09/26 10:36:19;;;;;;;3.45;1.63;;;14.40;99.90;;;;;;4985061;28;20541;-69
2022/09/26 10:41:56;;;;;;;5.93;2.03;;;14.40;99.90;;;;;;4993933;28;20084;-70
2022/09/26 10:44:33;;;;;;;7.23;2.40;;;14.40;99.90;;;;;;4993602;28;20486;-68
2022/09/26 10:47:12;;;;;;;5.18;2.45;;;14.40;99.90;;;;;;4993281;28;20368;-69
2022/09/26 10:49:51;;;;;;;3.30;1.95;;;14.40;99.90;;;;;;4993263;28;20030;-70
2022/09/26 10:52:32;;;;;;;3.28;1.70;;;14.40;99.90;;;;;;4993742;28;20042;-69
2022/09/26 10:55:05;;;;;;;6.00;2.35;;;14.40;99.90;;;;;;4993481;28;20046;-69
2022/09/26 10:57:53;;;;;;;4.43;2.10;;;14.40;99.90;;;;;;4989833;28;20030;-69
2022/09/26 11:00:41;;;;;;;4.30;2.03;;;14.40;99.90;;;;;;4982898;28;20031;-70
2022/09/26 11:03:15;;;;;;;4.30;2.00;;;14.40;99.90;;;;;;4982862;28;20451;-71
2022/09/26 11:05:58;;;;;;;5.82;2.38;;;14.40;99.90;;;;;;4986199;28;20379;-70
2022/09/26 11:08:31;;;;;;;2.78;1.88;;;14.40;99.90;;;;;;4987265;28;20038;-68
2022/09/26 11:11:02;;;;;;;7.40;1.95;;;14.40;99.90;;;;;;4998488;28;20031;-68
2022/09/26 11:13:46;;;;;;;2.85;1.60;;;14.40;99.90;;;;;;4996398;28;20061;-69
2022/09/26 11:16:20;;;;;;;4.05;1.95;;;14.40;99.90;;;;;;4998000;28;20022;-69
2022/09/26 11:18:58;;;;;;;3.17;1.67;;;14.40;99.90;;;;;;4995860;28;20121;-69
2022/09/26 11:21:40;;;;;;;9.55;1.92;;;14.30;99.90;;;;;;4994533;28;20026;-69
2022/09/26 11:24:36;;;;;;;6.32;1.70;;;14.40;99.90;;;;;;4994623;28;20037;-69
2022/09/26 11:27:12;;;;;;;5.95;1.65;;;14.30;99.90;;;;;;4994089;28;20038;-70
2022/09/26 11:29:47;;;;;;;4.30;2.05;;;14.40;99.90;;;;;;4995524;28;20069;-70
2022/09/26 11:32:37;;;;;;;5.00;2.20;;;14.30;99.90;;;;;;4995661;28;20041;-68
2022/09/26 11:35:05;;;;;;;4.05;1.95;;;14.30;99.90;;;;;;4995671;28;20030;-69
2022/09/26 11:38:08;;;;;;;3.45;1.85;;;14.30;99.90;;;;;;4995451;28;20395;-69
2022/09/26 11:40:50;;;;;;;6.85;2.47;;;14.30;99.90;;;;;;4995470;28;20057;-68
2022/09/26 11:43:24;;;;;;;3.80;2.30;;;14.20;99.90;;;;;;4992951;28;20375;-68
2022/09/26 11:46:06;;;;;;;5.18;2.28;;;14.20;99.90;;;;;;4995136;28;20110;-69
2022/09/26 11:48:54;;;;;;;8.30;1.90;;;14.30;99.90;;;;;;4995026;28;20080;-69
2022/09/26 11:51:41;;;;;;;7.13;2.20;;;14.20;99.90;;;;;;4993423;28;20488;-70
2022/09/26 11:54:26;;;;;;;4.25;1.70;;;14.20;99.90;;;;;;4995399;28;20026;-71
2022/09/26 11:57:20;;;;;;;4.97;1.92;;;14.30;99.90;;;;;;4989824;28;20026;-70
2022/09/26 12:00:08;;;;;;;3.25;1.70;;;14.30;99.90;;;;;;4964905;28;20129;-71
2022/09/26 12:03:06;;;;;;;6.68;2.95;;;14.30;99.90;;;;;;4986967;28;20054;-73
2022/09/26 12:05:36;;;;;;;3.45;1.73;;;14.30;99.90;;;;;;4965828;28;20522;-72
2022/09/26 12:08:15;;;;;;;3.90;2.05;;;14.20;99.90;;;;;;4985903;28;20053;-72
2022/09/26 12:11:16;;;;;;;3.75;2.47;;;14.30;99.90;;;;;;4989307;28;20110;-72
2022/09/26 12:14:08;;;;;;;3.30;2.00;;;14.30;99.90;;;;;;4993399;28;20034;-75
2022/09/26 12:16:57;;;;;;;10.25;2.00;;;14.20;99.90;;;;;;4994770;28;20038;-74
2022/09/26 12:19:56;;;;;;;2.83;1.90;;;14.20;99.90;;;;;;4993421;28;20129;-70
2022/09/26 12:22:34;;;;;;;12.02;2.95;;;14.20;99.90;;;;;;4992659;28;20112;-73
2022/09/26 12:25:23;;;;;;;8.63;2.55;;;14.20;99.90;;;;;;4985148;28;20098;-72
2022/09/26 12:28:09;;;;;;;6.68;2.05;;;14.20;99.90;;;;;;4986316;28;20061;-73
2022/09/26 12:31:00;;;;;;;7.35;2.38;;;14.20;99.90;;;;;;4984208;28;20081;-72
2022/09/26 12:33:36;;;;;;;5.22;2.83;;;14.20;99.90;;;;;;4985933;28;20039;-71
2022/09/26 12:36:38;;;;;;;3.85;2.28;;;14.20;99.90;;;;;;4985368;28;20057;-71
2022/09/26 12:39:23;;;;;;;3.88;1.92;;;14.20;99.90;;;;;;4985485;28;20075;-72
2022/09/26 12:42:24;;;;;;;5.75;1.90;;;14.20;99.90;;;;;;4986253;28;20030;-70
2022/09/26 12:45:18;;;;;;;7.75;2.63;;;14.10;99.90;;;;;;4986244;28;20038;-72
2022/09/26 12:47:58;;;;;;;6.68;2.20;;;14.10;99.90;;;;;;4985197;28;20423;-70
2022/09/26 12:50:51;;;;;;;4.07;2.03;;;14.10;99.90;;;;;;4985170;28;20026;-70
2022/09/26 12:53:27;;;;;;;4.35;2.50;;;14.10;99.90;;;;;;4973819;28;20177;-71
2022/09/26 12:56:21;;;;;;;6.20;1.92;;;14.10;99.90;;;;;;4995240;28;20065;-71
2022/09/26 12:59:21;;;;;;;1.98;1.63;;;14.00;99.90;;;;;;4994910;28;20042;-71
2022/09/26 13:02:02;;;;;;;4.90;2.30;;;14.00;99.90;;;;;;4994894;28;20031;-72
2022/09/26 13:04:32;;;;;;;5.82;2.53;;;14.00;99.90;;;;;;4994771;28;20022;-72
2022/09/26 13:07:17;;;;;;;4.97;2.05;;;13.90;99.90;;;;;;4994909;28;20024;-72
2022/09/26 13:10:14;;;;;;;4.70;2.10;;;13.90;99.90;;;;;;4994701;28;20027;-72
2022/09/26 13:13:22;;;;;;;4.65;2.80;;;13.80;99.90;;;;;;4995037;28;20026;-72
2022/09/26 13:16:02;;;;;;;5.93;2.80;;;13.80;99.90;;;;;;4994126;28;20114;-72
2022/09/26 13:18:42;;;;;;;5.68;2.80;;;13.80;99.90;;;;;;4994782;28;20026;-72
2022/09/26 13:21:23;;;;;;;8.82;2.33;;;13.70;99.90;;;;;;4994797;28;20510;-71
2022/09/26 13:24:33;;;;;;;4.85;1.98;;;13.70;99.90;;;;;;4994574;28;20030;-72
2022/09/26 13:27:21;;;;;;;3.10;2.30;;;13.70;99.90;;;;;;4990393;28;20030;-70
2022/09/26 13:30:00;;;;;;;4.25;2.10;;;13.70;99.90;;;;;;4994168;28;20046;-70
2022/09/26 13:32:34;;;;;;;9.20;3.10;;;13.70;99.90;;;;;;4994522;28;20164;-72
2022/09/26 13:35:24;;;;;;;5.78;2.45;;;13.60;99.90;;;;;;4994417;28;20030;-72
2022/09/26 13:38:08;;;;;;;3.38;2.20;;;13.60;99.90;;;;;;4994626;28;20113;-71
2022/09/26 13:40:41;;;;;;;3.97;2.53;;;13.50;99.90;;;;;;4994302;28;20041;-70
2022/09/26 13:43:42;;;;;;;4.25;2.28;;;13.60;99.90;;;;;;4994245;28;20057;-71
2022/09/26 13:46:15;;;;;;;5.32;3.05;;;13.50;99.90;;;;;;4994440;28;20449;-72
2022/09/26 13:49:00;;;;;;;7.10;2.78;;;13.50;99.90;;;;;;4994299;28;20057;-70
2022/09/26 13:51:47;;;;;;;4.57;2.83;;;13.60;99.90;;;;;;4994096;28;20035;-70